createdAt,value
2022-08-05T00:00:20.982Z,98630.16
2022-08-05T00:02:51.296Z,98629.50
2022-08-05T00:06:02.496Z,98623.31
2022-08-05T00:08:34.079Z,98618.66
2022-08-05T00:11:02.987Z,98585.72
2022-08-05T00:13:39.503Z,98532.28
2022-08-05T00:16:14.941Z,98613.00
2022-08-05T00:18:48.517Z,98591.41
2022-08-05T00:21:18.158Z,98602.16
2022-08-05T00:24:09.926Z,98602.78
2022-08-05T00:26:34.418Z,98577.94
2022-08-05T00:29:01.553Z,98613.81
2022-08-05T00:31:53.156Z,98530.00
2022-08-05T00:34:53.354Z,98593.56
2022-08-05T00:37:09.860Z,98600.28
2022-08-05T00:39:57.192Z,98601.44
2022-08-05T00:42:38.149Z,98606.66
2022-08-05T00:45:08.504Z,98636.56
2022-08-05T00:47:56.783Z,98577.91
2022-08-05T00:50:25.318Z,98624.59
2022-08-05T00:52:55.043Z,98562.09
2022-08-05T00:55:23.318Z,98656.44
2022-08-05T00:58:16.952Z,98554.19
2022-08-05T01:00:47.499Z,98653.63
2022-08-05T01:03:22.740Z,98590.59
2022-08-05T01:05:51.778Z,98666.38
2022-08-05T01:08:39.950Z,98712.75
2022-08-05T01:11:33.490Z,98637.03
2022-08-05T01:14:27.784Z,98655.75
2022-08-05T01:17:04.675Z,98681.44
2022-08-05T01:20:06.178Z,98593.63
2022-08-05T01:23:00.651Z,98621.28
2022-08-05T01:25:56.823Z,98589.06
2022-08-05T01:28:54.012Z,98694.22
2022-08-05T01:31:42.672Z,98636.88
2022-08-05T01:34:50.804Z,98651.50
2022-08-05T01:37:31.092Z,98654.72
2022-08-05T01:40:01.652Z,98635.94
2022-08-05T01:42:31.526Z,98619.41
2022-08-05T01:45:02.296Z,98653.09
2022-08-05T01:47:39.014Z,98654.00
2022-08-05T01:50:20.119Z,98625.09
2022-08-05T01:53:02.577Z,98588.31
2022-08-05T01:55:36.086Z,98633.94
2022-08-05T01:58:12.556Z,98651.75
2022-08-05T02:00:51.009Z,98624.81
2022-08-05T02:03:36.179Z,98649.06
2022-08-05T02:06:37.369Z,98620.31
2022-08-05T02:08:58.957Z,98677.56
2022-08-05T02:11:33.114Z,98647.50
2022-08-05T02:14:15.631Z,98629.84
2022-08-05T02:16:53.016Z,98656.84
2022-08-05T02:19:47.251Z,98677.50
2022-08-05T02:22:31.600Z,98679.78
2022-08-05T02:25:08.756Z,98651.56
2022-08-05T02:27:59.724Z,98667.75
2022-08-05T02:30:51.749Z,98651.50
2022-08-05T02:33:24.619Z,98627.44
2022-08-05T02:39:09.285Z,98711.75
2022-08-05T02:41:58.034Z,98660.97
2022-08-05T02:44:28.299Z,98667.16
2022-08-05T02:47:00.693Z,98659.53
2022-08-05T02:49:36.671Z,98653.63
2022-08-05T02:52:26.028Z,98648.16
2022-08-05T02:55:01.969Z,98664.53
2022-08-05T02:58:11.264Z,98708.97
2022-08-05T03:00:22.750Z,98659.94
2022-08-05T03:02:54.543Z,98662.25
2022-08-05T03:06:55.387Z,98638.03
2022-08-05T03:08:11.299Z,98596.19
2022-08-05T03:10:38.931Z,98667.66
2022-08-05T03:13:17.209Z,98620.34
2022-08-05T03:15:50.857Z,98589.13
2022-08-05T03:18:19.049Z,98640.06
2022-08-05T03:20:57.146Z,98691.63
2022-08-05T03:23:25.148Z,98699.03
2022-08-05T03:26:03.923Z,98652.81
2022-08-05T03:28:40.025Z,98666.72
2022-08-05T03:31:09.363Z,98709.34
2022-08-05T03:33:52.778Z,98700.50
2022-08-05T03:36:30.110Z,98550.88
2022-08-05T03:38:58.287Z,98672.41
2022-08-05T03:41:25.725Z,98693.22
2022-08-05T03:44:10.998Z,98671.75
2022-08-05T03:46:39.334Z,98707.19
2022-08-05T03:49:06.790Z,98682.13
2022-08-05T03:52:37.213Z,98666.38
2022-08-05T03:55:51.843Z,98666.97
2022-08-05T03:57:42.357Z,98639.78
2022-08-05T04:00:15.863Z,98614.88
2022-08-05T04:02:57.750Z,98655.41
2022-08-05T04:05:34.417Z,98695.16
2022-08-05T04:08:35.327Z,98577.63
2022-08-05T04:11:03.370Z,98620.91
2022-08-05T04:13:49.930Z,98637.06
2022-08-05T04:16:24.343Z,98664.25
2022-08-05T04:18:54.763Z,98712.50
2022-08-05T04:22:08.590Z,98626.22
2022-08-05T04:24:19.119Z,98685.13
2022-08-05T04:26:50.334Z,98711.78
2022-08-05T04:29:17.319Z,98731.81
2022-08-05T04:31:44.256Z,98703.91
2022-08-05T04:34:29.569Z,98726.97
2022-08-05T04:36:59.256Z,98736.97
2022-08-05T04:39:27.928Z,98787.25
2022-08-05T04:41:55.490Z,98799.56
2022-08-05T04:44:29.992Z,98769.59
2022-08-05T04:47:09.170Z,98782.97
2022-08-05T04:50:03.013Z,98797.44
2022-08-05T04:52:28.383Z,98848.16
2022-08-05T04:54:57.256Z,98746.72
2022-08-05T04:57:29.229Z,98867.72
2022-08-05T04:59:58.664Z,98782.63
2022-08-05T05:02:36.980Z,98862.53
2022-08-05T05:05:16.706Z,98858.47
2022-08-05T05:08:30.155Z,98854.56
2022-08-05T05:10:57.676Z,98845.84
2022-08-05T05:13:24.877Z,98854.53
2022-08-05T05:16:01.995Z,98866.75
2022-08-05T05:18:33.626Z,98894.59
2022-08-05T05:21:03.198Z,98825.97
2022-08-05T05:23:38.993Z,98895.78
2022-08-05T05:26:17.747Z,98914.81
2022-08-05T05:28:45.372Z,98935.69
2022-08-05T05:31:13.026Z,98939.03
2022-08-05T05:33:58.512Z,99023.72
2022-08-05T05:36:28.518Z,98966.16
2022-08-05T05:38:57.334Z,98961.63
2022-08-05T05:41:24.741Z,98922.69
2022-08-05T05:43:56.552Z,98955.72
2022-08-05T05:46:25.834Z,98881.56
2022-08-05T05:48:52.989Z,98889.72
2022-08-05T05:51:22.075Z,98842.31
2022-08-05T05:53:57.297Z,98853.38
2022-08-05T05:56:32.937Z,98885.81
2022-08-05T05:59:06.994Z,99002.88
2022-08-05T06:01:39.453Z,98871.56
2022-08-05T06:04:12.250Z,98941.34
2022-08-05T06:06:47.722Z,98898.53
2022-08-05T06:09:26.517Z,98918.00
2022-08-05T06:12:05.783Z,98953.97
2022-08-05T06:14:37.141Z,98931.47
2022-08-05T06:17:22.476Z,98921.50
2022-08-05T06:19:56.775Z,98875.72
2022-08-05T06:22:33.477Z,98938.88
2022-08-05T06:25:58.976Z,98919.28
2022-08-05T06:28:11.466Z,98932.56
2022-08-05T06:30:38.188Z,98865.75
2022-08-05T06:33:10.604Z,98958.47
2022-08-05T06:36:04.003Z,98914.09
2022-08-05T06:38:36.042Z,98943.44
2022-08-05T06:41:08.028Z,98977.84
2022-08-05T06:43:51.559Z,99001.75
2022-08-05T06:46:30.261Z,99028.84
2022-08-05T06:48:59.730Z,98994.84
2022-08-05T06:51:29.744Z,99032.22
2022-08-05T06:53:59.881Z,99031.38
2022-08-05T06:56:28.207Z,98989.34
2022-08-05T06:58:55.755Z,98978.69
2022-08-05T07:01:27.705Z,98983.38
2022-08-05T07:04:02.273Z,98978.00
2022-08-05T07:06:30.120Z,98977.31
2022-08-05T07:08:59.206Z,98946.97
2022-08-05T07:11:28.612Z,99005.66
2022-08-05T07:14:20.010Z,98967.44
2022-08-05T07:17:59.112Z,98978.50
2022-08-05T07:22:28.747Z,99036.22
2022-08-05T07:25:22.381Z,99009.31
2022-08-05T07:27:57.566Z,99016.38
2022-08-05T07:30:39.207Z,99001.94
2022-08-05T07:33:16.687Z,98966.78
2022-08-05T07:36:05.057Z,99001.38
2022-08-05T07:38:42.583Z,98998.41
2022-08-05T07:42:13.506Z,98980.84
2022-08-05T07:44:14.186Z,98995.72
2022-08-05T07:46:48.411Z,98997.72
2022-08-05T07:49:18.122Z,98921.09
2022-08-05T07:51:52.851Z,98985.13
2022-08-05T07:54:30.734Z,98963.78
2022-08-05T07:57:02.876Z,98966.75
2022-08-05T07:59:46.901Z,98950.28
2022-08-05T08:02:17.664Z,99012.22
2022-08-05T08:04:49.500Z,98982.81
2022-08-05T08:07:22.697Z,99078.50
2022-08-05T08:09:55.037Z,99002.56
2022-08-05T08:12:37.419Z,99072.69
2022-08-05T08:15:15.404Z,99021.47
2022-08-05T08:17:52.977Z,98987.75
2022-08-05T08:21:00.286Z,99060.09
2022-08-05T08:24:02.598Z,99021.97
2022-08-05T08:26:04.504Z,99031.78
2022-08-05T08:28:36.427Z,98962.09
2022-08-05T08:31:07.319Z,99028.09
2022-08-05T08:33:37.600Z,99010.75
2022-08-05T08:36:50.494Z,99002.69
2022-08-05T08:39:18.644Z,98959.34
2022-08-05T08:41:51.682Z,99018.59
2022-08-05T08:45:18.901Z,99002.97
2022-08-05T08:48:05.811Z,99018.44
2022-08-05T08:50:30.710Z,98912.09
2022-08-05T08:53:07.950Z,99020.19
2022-08-05T08:56:02.741Z,98997.19
2022-08-05T08:58:43.548Z,98933.28
2022-08-05T09:01:15.838Z,98993.91
2022-08-05T09:03:48.382Z,98928.28
2022-08-05T09:06:28.232Z,98956.59
2022-08-05T09:09:02.091Z,98995.94
2022-08-05T09:11:53.194Z,98962.16
2022-08-05T09:14:56.898Z,98964.91
2022-08-05T09:17:09.805Z,98921.84
2022-08-05T09:19:55.056Z,98950.91
2022-08-05T09:22:31.868Z,99007.69
2022-08-05T09:25:13.711Z,98948.81
2022-08-05T09:28:04.307Z,98966.50
2022-08-05T09:30:34.935Z,98991.31
2022-08-05T09:33:02.653Z,98985.97
2022-08-05T09:35:34.432Z,99037.69
2022-08-05T09:38:17.146Z,98957.28
2022-08-05T09:40:52.433Z,98976.72
2022-08-05T09:43:41.606Z,98975.75
2022-08-05T09:46:32.856Z,98940.19
2022-08-05T09:49:19.403Z,98978.75
2022-08-05T09:51:48.993Z,99002.94
2022-08-05T09:54:29.564Z,98974.00
2022-08-05T09:56:57.489Z,98978.06
2022-08-05T09:59:27.574Z,99021.84
2022-08-05T10:01:57.790Z,98988.13
2022-08-05T10:04:38.557Z,99041.44
2022-08-05T10:07:19.623Z,99021.59
2022-08-05T10:10:04.274Z,99059.78
2022-08-05T10:12:55.429Z,99048.50
2022-08-05T10:15:34.090Z,99062.97
2022-08-05T10:18:16.730Z,98937.88
2022-08-05T10:20:53.804Z,99024.38
2022-08-05T10:23:55.418Z,99055.78
2022-08-05T10:26:31.606Z,98968.59
2022-08-05T10:29:00.462Z,99042.88
2022-08-05T10:33:01.410Z,99045.06
2022-08-05T10:34:14.741Z,99028.53
2022-08-05T10:36:45.119Z,99020.56
2022-08-05T10:39:25.209Z,98962.84
2022-08-05T10:42:18.652Z,98929.72
2022-08-05T10:44:50.971Z,99050.59
2022-08-05T10:47:26.779Z,98976.69
2022-08-05T10:50:33.176Z,98944.38
2022-08-05T10:52:58.706Z,99010.81
2022-08-05T10:55:27.474Z,99011.66
2022-08-05T10:58:21.002Z,98904.34
2022-08-05T11:00:48.469Z,98923.97
2022-08-05T11:03:24.603Z,98949.09
2022-08-05T11:06:15.363Z,98974.22
2022-08-05T11:09:32.167Z,98969.66
2022-08-05T11:12:26.672Z,99063.69
2022-08-05T11:16:00.347Z,98966.47
2022-08-05T11:18:37.020Z,98997.84
2022-08-05T11:21:40.919Z,99029.50
2022-08-05T11:24:29.965Z,99048.38
2022-08-05T11:27:51.440Z,99004.44
2022-08-05T11:30:17.989Z,99051.66
2022-08-05T11:32:47.911Z,99044.19
2022-08-05T11:36:07.627Z,98997.53
2022-08-05T11:38:46.124Z,98995.47
2022-08-05T11:41:58.205Z,99014.69
2022-08-05T11:44:40.780Z,98933.88
2022-08-05T11:47:11.708Z,98972.38
2022-08-05T11:49:43.242Z,99014.69
2022-08-05T11:52:29.208Z,98973.81
2022-08-05T11:54:59.345Z,98936.81
2022-08-05T11:57:39.591Z,98978.63
2022-08-05T12:00:31.126Z,98982.50
2022-08-05T12:02:58.411Z,98966.09
2022-08-05T12:05:32.341Z,98981.53
2022-08-05T12:08:11.262Z,99052.34
2022-08-05T12:10:45.768Z,98942.56
2022-08-05T12:13:27.987Z,98991.34
2022-08-05T12:16:14.484Z,98972.63
2022-08-05T12:18:52.787Z,99029.06
2022-08-05T12:21:30.690Z,98998.72
2022-08-05T12:24:07.340Z,98915.38
2022-08-05T12:26:44.286Z,98999.25
2022-08-05T12:29:23.632Z,98923.91
2022-08-05T12:31:56.024Z,99027.47
2022-08-05T12:34:33.621Z,98970.81
2022-08-05T12:37:21.492Z,98967.06
2022-08-05T12:39:53.777Z,98940.94
2022-08-05T12:42:21.898Z,98968.75
2022-08-05T12:44:52.787Z,99001.25
2022-08-05T12:47:31.088Z,99004.31
2022-08-05T12:50:03.285Z,98997.97
2022-08-05T12:52:39.578Z,99005.06
2022-08-05T12:55:26.265Z,98984.50
2022-08-05T12:58:50.934Z,99019.41
2022-08-05T13:02:01.313Z,98878.41
2022-08-05T13:03:42.043Z,98895.41
2022-08-05T13:06:16.776Z,98936.78
2022-08-05T13:08:51.791Z,98958.69
2022-08-05T13:11:25.316Z,98909.03
2022-08-05T13:14:36.296Z,98899.06
2022-08-05T13:17:31.707Z,98901.88
2022-08-05T13:20:24.145Z,98963.22
2022-08-05T13:22:56.363Z,98977.66
2022-08-05T13:25:51.945Z,98953.91
2022-08-05T13:28:12.980Z,98886.97
2022-08-05T13:30:41.364Z,98907.63
2022-08-05T13:33:08.539Z,98906.47
2022-08-05T13:35:51.185Z,98877.88
2022-08-05T13:38:31.153Z,98954.78
2022-08-05T13:41:03.909Z,98905.19
2022-08-05T13:43:44.163Z,98879.34
2022-08-05T13:46:13.885Z,98893.56
2022-08-05T13:48:57.497Z,98920.84
2022-08-05T13:51:40.193Z,98928.97
2022-08-05T13:54:12.321Z,98929.53
2022-08-05T13:56:51.093Z,98881.59
2022-08-05T13:59:24.720Z,98867.81
2022-08-05T14:01:59.867Z,98890.88
2022-08-05T14:04:51.137Z,98936.88
2022-08-05T14:07:25.743Z,98924.47
2022-08-05T14:10:19.153Z,98861.19
2022-08-05T14:12:55.482Z,98844.03
2022-08-05T14:16:08.685Z,98900.28
2022-08-05T14:18:14.754Z,98913.34
2022-08-05T14:20:46.838Z,98897.63
2022-08-05T14:23:24.604Z,98919.94
2022-08-05T14:25:58.524Z,98892.13
2022-08-05T14:28:30.876Z,98866.66
2022-08-05T14:31:00.873Z,98852.75
2022-08-05T14:33:56.811Z,98892.72
2022-08-05T14:36:20.605Z,98876.44
2022-08-05T14:38:50.783Z,98883.66
2022-08-05T14:41:20.053Z,98862.31
2022-08-05T14:44:02.195Z,98889.38
2022-08-05T14:46:36.704Z,98880.47
2022-08-05T14:49:07.341Z,98840.75
2022-08-05T14:51:42.582Z,98796.53
2022-08-05T14:54:27.501Z,98896.66
2022-08-05T14:56:57.945Z,98919.91
2022-08-05T14:59:29.525Z,98839.25
2022-08-05T15:02:03.550Z,98890.47
2022-08-05T15:04:41.953Z,98913.13
2022-08-05T15:07:10.355Z,98818.28
2022-08-05T15:09:57.500Z,98901.63
2022-08-05T15:12:33.658Z,98875.38
2022-08-05T15:15:15.500Z,98849.13
2022-08-05T15:17:46.920Z,98877.13
2022-08-05T15:20:24.627Z,98837.53
2022-08-05T15:22:54.927Z,98868.44
2022-08-05T15:25:41.326Z,98778.75
2022-08-05T15:28:14.874Z,98883.75
2022-08-05T15:30:45.745Z,98944.09
2022-08-05T15:33:56.835Z,98806.09
2022-08-05T15:36:04.090Z,98927.91
2022-08-05T15:38:41.258Z,98950.38
2022-08-05T15:41:21.047Z,98874.44
2022-08-05T15:43:51.311Z,98944.75
2022-08-05T15:46:20.803Z,98944.31
2022-08-05T15:49:00.951Z,98909.44
2022-08-05T15:52:13.642Z,98873.56
2022-08-05T15:54:37.329Z,98936.72
2022-08-05T15:57:07.462Z,98949.59
2022-08-05T15:59:36.146Z,98918.59
2022-08-05T16:02:14.487Z,98981.19
2022-08-05T16:04:43.421Z,98957.72
2022-08-05T16:07:11.390Z,98972.81
2022-08-05T16:09:41.586Z,98923.19
2022-08-05T16:12:09.456Z,98970.72
2022-08-05T16:14:38.491Z,98952.25
2022-08-05T16:17:05.646Z,98879.84
2022-08-05T16:20:11.772Z,98948.47
2022-08-05T16:22:27.430Z,98930.69
2022-08-05T16:24:55.510Z,98924.50
2022-08-05T16:27:46.692Z,98969.19
2022-08-05T16:30:26.472Z,98926.56
2022-08-05T16:32:58.609Z,98904.63
2022-08-05T16:35:33.709Z,98933.00
2022-08-05T16:38:24.510Z,98953.44
2022-08-05T16:40:59.825Z,98911.44
2022-08-05T16:43:33.607Z,98980.03
2022-08-05T16:46:23.762Z,99007.94
2022-08-05T16:48:52.083Z,98881.63
2022-08-05T16:51:20.709Z,98966.09
2022-08-05T16:54:02.546Z,98958.88
2022-08-05T16:56:34.323Z,98940.34
2022-08-05T16:59:09.098Z,98916.84
2022-08-05T17:01:52.956Z,98940.19
2022-08-05T17:04:26.594Z,98983.31
2022-08-05T17:07:01.288Z,98909.84
2022-08-05T17:09:30.261Z,98995.63
2022-08-05T17:11:59.723Z,98947.97
2022-08-05T17:14:37.447Z,98921.59
2022-08-05T17:17:14.151Z,98968.25
2022-08-05T17:19:45.642Z,98969.53
2022-08-05T17:22:24.903Z,98988.53
2022-08-05T17:24:57.599Z,98994.13
2022-08-05T17:27:33.848Z,98994.94
2022-08-05T17:30:12.191Z,98955.72
2022-08-05T17:32:46.679Z,99038.41
2022-08-05T17:35:15.827Z,98974.13
2022-08-05T17:37:48.647Z,99044.41
2022-08-05T17:40:18.539Z,99003.78
2022-08-05T17:42:52.212Z,99035.81
2022-08-05T17:45:22.941Z,99009.59
2022-08-05T17:47:54.957Z,98996.69
2022-08-05T17:50:30.539Z,99011.69
2022-08-05T17:53:01.075Z,99018.34
2022-08-05T17:55:38.163Z,98965.69
2022-08-05T17:58:09.324Z,99005.63
2022-08-05T18:00:40.801Z,99038.66
2022-08-05T18:03:28.142Z,99047.06
2022-08-05T18:06:04.919Z,99021.03
2022-08-05T18:08:33.792Z,98997.78
2022-08-05T18:11:03.253Z,99011.91
2022-08-05T18:13:35.615Z,99075.75
2022-08-05T18:16:05.078Z,99000.25
2022-08-05T18:18:33.655Z,99031.22
2022-08-05T18:21:13.400Z,99090.19
2022-08-05T18:23:47.271Z,99050.44
2022-08-05T18:26:14.744Z,99086.50
2022-08-05T18:28:46.336Z,99081.34
2022-08-05T18:31:13.738Z,99047.13
2022-08-05T18:33:47.025Z,99082.88
2022-08-05T18:36:15.081Z,99086.50
2022-08-05T18:38:43.143Z,99138.13
2022-08-05T18:41:57.573Z,99051.94
2022-08-05T18:43:57.531Z,99092.34
2022-08-05T18:46:33.142Z,99115.91
2022-08-05T18:49:21.085Z,99070.97
2022-08-05T18:52:08.412Z,99108.53
2022-08-05T18:54:35.909Z,99063.75
2022-08-05T18:57:09.570Z,99084.72
2022-08-05T19:00:03.192Z,99103.81
2022-08-05T19:02:29.896Z,99122.56
2022-08-05T19:05:03.235Z,99145.19
2022-08-05T19:07:50.823Z,99115.31
2022-08-05T19:10:20.526Z,99113.75
2022-08-05T19:12:55.741Z,99123.38
2022-08-05T19:15:25.251Z,99092.91
2022-08-05T19:18:22.032Z,99086.09
2022-08-05T19:20:52.445Z,99180.75
2022-08-05T19:24:04.095Z,99163.03
2022-08-05T19:26:08.428Z,99134.47
2022-08-05T19:28:43.302Z,99128.69
2022-08-05T19:31:13.211Z,99156.09
2022-08-05T19:33:53.086Z,99171.34
2022-08-05T19:36:29.222Z,99100.81
2022-08-05T19:39:00.584Z,99175.72
2022-08-05T19:42:05.340Z,99205.06
2022-08-05T19:44:19.522Z,99143.03
2022-08-05T19:46:46.850Z,99183.66
2022-08-05T19:49:16.536Z,99184.69
2022-08-05T19:52:09.040Z,99185.47
2022-08-05T19:54:32.896Z,99210.13
2022-08-05T19:57:09.185Z,99194.81
2022-08-05T19:59:55.369Z,99172.22
2022-08-05T20:02:30.382Z,99290.31
2022-08-05T20:04:59.719Z,99211.28
2022-08-05T20:07:48.250Z,99249.44
2022-08-05T20:10:17.173Z,99291.16
2022-08-05T20:12:46.232Z,99303.19
2022-08-05T20:15:23.058Z,99200.69
2022-08-05T20:18:10.206Z,99244.06
2022-08-05T20:20:56.213Z,99231.34
2022-08-05T20:23:40.384Z,99214.66
2022-08-05T20:26:16.125Z,99258.16
2022-08-05T20:28:48.743Z,99209.63
2022-08-05T20:31:21.823Z,99163.66
2022-08-05T20:33:50.754Z,99216.38
2022-08-05T20:36:21.564Z,99262.47
2022-08-05T20:38:54.232Z,99261.75
2022-08-05T20:41:44.580Z,99253.72
2022-08-05T20:44:29.456Z,99248.59
2022-08-05T20:46:59.718Z,99279.69
2022-08-05T20:49:27.008Z,99262.16
2022-08-05T20:51:55.831Z,99206.22
2022-08-05T20:54:42.785Z,99214.66
2022-08-05T20:57:10.859Z,99259.66
2022-08-05T21:00:10.561Z,99170.09
2022-08-05T21:02:29.161Z,99272.81
2022-08-05T21:04:56.452Z,99238.09
2022-08-05T21:07:24.349Z,99241.19
2022-08-05T21:09:53.872Z,99278.22
2022-08-05T21:12:21.671Z,99228.03
2022-08-05T21:14:53.941Z,99278.41
2022-08-05T21:17:22.128Z,99286.22
2022-08-05T21:19:50.522Z,99315.66
2022-08-05T21:22:23.533Z,99260.28
2022-08-05T21:24:54.391Z,99284.66
2022-08-05T21:27:25.382Z,99293.59
2022-08-05T21:29:56.220Z,99261.13
2022-08-05T21:32:26.624Z,99244.59
2022-08-05T21:35:17.223Z,99217.59
2022-08-05T21:37:47.294Z,99352.88
2022-08-05T21:40:16.617Z,99307.50
2022-08-05T21:42:45.484Z,99269.28
2022-08-05T21:45:24.738Z,99332.78
2022-08-05T21:47:56.230Z,99342.25
2022-08-05T21:50:28.209Z,99262.31
2022-08-05T21:52:58.722Z,99292.28
2022-08-05T21:56:01.362Z,99332.59
2022-08-05T21:58:13.281Z,99319.25
2022-08-05T22:00:40.464Z,99309.06
2022-08-05T22:03:14.399Z,99322.25
2022-08-05T22:05:48.853Z,99336.03
2022-08-05T22:08:22.159Z,99361.59
2022-08-05T22:10:50.991Z,99338.94
2022-08-05T22:14:06.431Z,99297.22
2022-08-05T22:16:20.395Z,99323.91
2022-08-05T22:18:53.029Z,99268.41
2022-08-05T22:21:20.555Z,99324.03
2022-08-05T22:24:09.040Z,99376.38
2022-08-05T22:26:59.256Z,99339.94
2022-08-05T22:29:32.844Z,99361.88
2022-08-05T22:32:03.190Z,99309.28
2022-08-05T22:34:32.240Z,99375.44
2022-08-05T22:37:00.789Z,99347.88
2022-08-05T22:39:33.981Z,99383.28
2022-08-05T22:42:12.725Z,99382.13
2022-08-05T22:44:48.401Z,99339.69
2022-08-05T22:47:29.751Z,99364.91
2022-08-05T22:50:20.364Z,99407.38
2022-08-05T22:52:51.259Z,99357.97
2022-08-05T22:55:21.943Z,99358.59
2022-08-05T22:57:51.478Z,99362.88
2022-08-05T23:00:21.730Z,99393.91
2022-08-05T23:02:50.784Z,99394.13
2022-08-05T23:05:22.259Z,99391.47
2022-08-05T23:07:52.646Z,99340.84
2022-08-05T23:10:24.049Z,99372.44
2022-08-05T23:12:54.937Z,99344.41
2022-08-05T23:15:27.159Z,99399.28
2022-08-05T23:18:01.376Z,99359.16
2022-08-05T23:20:32.341Z,99358.97
2022-08-05T23:23:00.114Z,99338.84
2022-08-05T23:25:52.816Z,99355.13
2022-08-05T23:28:17.307Z,99318.88
2022-08-05T23:30:53.077Z,99341.47
2022-08-05T23:34:02.963Z,99358.63
2022-08-05T23:36:10.507Z,99393.75
2022-08-05T23:38:38.489Z,99330.09
2022-08-05T23:41:05.788Z,99309.94
2022-08-05T23:44:03.238Z,99359.63
2022-08-05T23:46:22.139Z,99354.88
2022-08-05T23:49:01.114Z,99308.88
2022-08-05T23:51:55.459Z,99386.91
2022-08-05T23:54:30.151Z,99384.50
2022-08-05T23:57:04.943Z,99373.59
